Shoshone, California Weather observations

Data are for observation ending at time listed.
 Day   Time    Ave.   Ave.  Ave.  Vector   Max.   Stn.    Total    Solar   Ave.  
  of    of     Air    Rel.  Wind   Wind    Wind   Baro.  Precip.   Rad.    Soil  
Year   Day     Temp.  Hum.  Speed  Dir.    Gust   Pres.                    Temp. 
2015   (PST)    F      %     mph   deg.    mph     mb.     in.     W/m2     F   
------------------------------------------------------------------------------
 208   12:00   95.0    13    4.2    53     10.2    963     0.00    1021    99999.0
 208   13:00   97.1    12    4.1   110     11.0    963     0.00    1013    99999.0
 208   14:00  100.0    11    3.7    75     11.8    962     0.00     950    99999.0
 208   15:00  101.6    10    4.1   247     12.0    961     0.00     827    99999.0
 208   16:00  102.5     9    2.9   110      9.9    960     0.00     653    99999.0
 208   17:00  102.6    10    3.6   208     11.5    960     0.00     446    99999.0
 208   18:00  101.5    10    3.2   177      9.9    960     0.00     230    99999.0
 208   19:00   97.5    12    1.7   174      7.7    960     0.00      46    99999.0
 208   20:00   91.8    12    0.0   157      0.9    960     0.00       0    99999.0
 208   21:00   89.3    12    1.5    90      4.8    961     0.00       0    99999.0
 208   22:00   84.9    13    1.6    50      4.5    961     0.00       0    99999.0
 208   23:00   78.5    16    1.3   308      4.5    962     0.00       0    99999.0
 209    0:00   77.0    18    1.0    58      3.8    962     0.00       0    99999.0
 209    1:00   73.7    20    1.6     2      4.8    962     0.00       0    99999.0
 209    2:00   69.9    24    0.5   310      4.2    963     0.00       0    99999.0
 209    3:00   69.7    23    0.7    38      3.2    963     0.00       0    99999.0
 209    4:00   67.8    24    0.8    46      3.2    963     0.00       0    99999.0
 209    5:00   64.4    29    1.3   358      3.9    964     0.00       3    99999.0
 209    6:00   64.6    30    0.8    34      3.9    965     0.00      64    99999.0
 209    7:00   76.2    20    1.3   302      9.2    965     0.00     287    99999.0
 209    8:00   85.6    12    3.6    16     11.0    966     0.00     505    99999.0
 209    9:00   91.7    10    5.0   350     13.0    966     0.00     702    99999.0
 209   10:00   95.9     8    3.5   346      9.1    966     0.00     864    99999.0
 209   11:00   99.1     8    2.5    38      7.2    965     0.00     973    99999.0

Return to Shoshone, California graphs page.


Western Regional Climate Center,wrcc@dri.edu